Time;durP1;ratioP1;P1;durP2;ratioP2;P2;SDS_P1;SDS_P2;PMS_P1;PMS_P2;Temp;Humidity;BMP_temperature;BMP_pressure;BME280_temperature;BME280_humidity;BME280_pressure;Samples;Min_cycle;Max_cycle;Signal;HPM_P1;HPM_P2
2020/12/19 00:00:27;;;;;;;129.77;32.70;;;;;;;-1.49;100.00;96317.91;1030723;28;20026;-71
2020/12/19 00:00:57;;;;;;;98.23;30.33;;;;;;;-1.47;100.00;96315.19;1030435;28;20022;-71
2020/12/19 00:01:32;;;;;;;77.30;27.33;;;;;;;-1.44;100.00;96312.25;1025034;28;20080;-70
2020/12/19 00:02:05;;;;;;;98.10;29.10;;;;;;;-1.42;100.00;96310.31;1038801;28;20150;-69
2020/12/19 00:02:36;;;;;;;104.18;28.13;;;;;;;-1.45;100.00;96301.16;1038722;28;20068;-70
2020/12/19 00:03:07;;;;;;;171.02;25.30;;;;;;;-1.49;100.00;96307.63;1030657;28;20428;-70
2020/12/19 00:03:37;;;;;;;109.63;23.37;;;;;;;-1.50;100.00;96312.94;1030205;28;20027;-70
2020/12/19 00:04:08;;;;;;;103.13;23.73;;;;;;;-1.56;100.00;96303.34;1026494;28;20096;-69
2020/12/19 00:04:38;;;;;;;111.33;22.53;;;;;;;-1.58;100.00;96297.56;1026458;28;20035;-70
2020/12/19 00:05:09;;;;;;;186.57;27.67;;;;;;;-1.54;100.00;96312.50;1025152;28;20626;-72
2020/12/19 00:05:39;;;;;;;219.63;30.90;;;;;;;-1.61;100.00;96300.47;1030278;28;20126;-69
2020/12/19 00:06:10;;;;;;;131.43;23.70;;;;;;;-1.57;100.00;96312.03;1026362;28;20023;-69
2020/12/19 00:06:43;;;;;;;201.30;26.30;;;;;;;-1.61;100.00;96308.19;1026375;28;20061;-70
2020/12/19 00:07:14;;;;;;;146.52;24.98;;;;;;;-1.58;100.00;96308.66;1026631;28;20061;-72
2020/12/19 00:07:44;;;;;;;354.83;35.37;;;;;;;-1.66;100.00;96309.50;1023356;28;20043;-69
2020/12/19 00:08:15;;;;;;;225.90;37.47;;;;;;;-1.63;100.00;96305.00;1029457;28;20515;-70
2020/12/19 00:08:45;;;;;;;304.37;35.33;;;;;;;-1.61;100.00;96308.19;1022501;28;20023;-72
2020/12/19 00:09:15;;;;;;;230.17;34.03;;;;;;;-1.65;100.00;96302.59;1018727;29;20042;-71
2020/12/19 00:09:46;;;;;;;195.77;33.77;;;;;;;-1.61;100.00;96308.19;1022124;28;20027;-70
2020/12/19 00:10:16;;;;;;;249.10;35.03;;;;;;;-1.60;100.00;96307.25;1020051;28;20023;-69
2020/12/19 00:10:47;;;;;;;221.37;36.97;;;;;;;-1.59;100.00;96298.53;1022781;28;20492;-71
2020/12/19 00:11:17;;;;;;;264.47;39.53;;;;;;;-1.55;100.00;96297.22;1022662;28;20031;-70
2020/12/19 00:11:48;;;;;;;174.87;29.53;;;;;;;-1.54;100.00;96302.19;1030872;28;20423;-71
2020/12/19 00:12:21;;;;;;;142.70;30.20;;;;;;;-1.59;100.00;96285.66;1030209;28;20031;-71
2020/12/19 00:12:57;;;;;;;138.15;30.58;;;;;;;-1.54;100.00;96301.38;1018644;29;20024;-71
2020/12/19 00:13:27;;;;;;;172.15;28.52;;;;;;;-1.62;100.00;96288.59;1018498;29;20027;-74
2020/12/19 00:13:58;;;;;;;137.40;31.00;;;;;;;-1.61;100.00;96287.59;1018528;29;20020;-71
2020/12/19 00:14:28;;;;;;;239.00;31.27;;;;;;;-1.66;100.00;96288.13;1022328;29;20015;-71
2020/12/19 00:14:59;;;;;;;271.50;33.27;;;;;;;-1.71;100.00;96287.84;1026465;28;20023;-70
2020/12/19 00:15:29;;;;;;;272.40;30.53;;;;;;;-1.64;100.00;96293.09;1022390;28;20031;-70
2020/12/19 00:16:00;;;;;;;290.60;30.83;;;;;;;-1.64;100.00;96293.91;1018739;29;20031;-71
2020/12/19 00:16:30;;;;;;;202.83;34.77;;;;;;;-1.66;100.00;96293.28;1023471;28;20476;-70
2020/12/19 00:17:01;;;;;;;153.70;29.20;;;;;;;-1.73;100.00;96280.31;1027774;28;20027;-71
2020/12/19 00:17:31;;;;;;;185.00;27.73;;;;;;;-1.62;100.00;96294.53;1030495;28;20093;-71
2020/12/19 00:18:02;;;;;;;213.50;34.23;;;;;;;-1.61;100.00;96291.00;1051629;28;20024;-69
2020/12/19 00:18:32;;;;;;;153.10;28.67;;;;;;;-1.59;100.00;96295.97;1022911;28;20020;-70
2020/12/19 00:19:05;;;;;;;85.93;26.80;;;;;;;-1.59;100.00;96301.09;1038954;28;20033;-69
2020/12/19 00:19:36;;;;;;;200.70;28.98;;;;;;;-1.68;100.00;96275.47;1039254;28;20732;-72
2020/12/19 00:20:06;;;;;;;201.47;28.63;;;;;;;-1.59;100.00;96293.38;1027624;28;20034;-72
2020/12/19 00:20:37;;;;;;;199.90;28.40;;;;;;;-1.62;100.00;96291.16;1031329;28;20018;-70
2020/12/19 00:21:08;;;;;;;154.37;30.33;;;;;;;-1.64;100.00;96285.38;1027573;28;20019;-69
2020/12/19 00:21:39;;;;;;;314.17;36.38;;;;;;;-1.64;100.00;96288.78;1025541;28;20121;-72
2020/12/19 00:22:09;;;;;;;204.67;32.83;;;;;;;-1.62;100.00;96291.97;1018543;29;20081;-73
2020/12/19 00:22:41;;;;;;;182.43;33.27;;;;;;;-1.57;100.00;96294.03;1022476;28;20408;-70
2020/12/19 00:23:12;;;;;;;212.27;32.83;;;;;;;-1.54;100.00;96298.81;1018295;28;20035;-70
2020/12/19 00:23:42;;;;;;;189.00;32.53;;;;;;;-1.64;100.00;96282.81;1018231;28;20115;-71
2020/12/19 00:24:13;;;;;;;213.07;30.57;;;;;;;-1.61;100.00;96290.19;1022509;29;20027;-71
2020/12/19 00:24:43;;;;;;;207.40;32.17;;;;;;;-1.63;100.00;96290.38;1022695;28;20024;-71
2020/12/19 00:25:14;;;;;;;174.97;30.83;;;;;;;-1.63;100.00;96284.44;1029279;28;20014;-71
2020/12/19 00:25:44;;;;;;;233.13;33.97;;;;;;;-1.63;100.00;96289.56;1026170;28;20022;-71
2020/12/19 00:26:15;;;;;;;135.43;28.87;;;;;;;-1.63;100.00;96289.56;1030604;28;20034;-71
2020/12/19 00:26:45;;;;;;;239.47;32.00;;;;;;;-1.66;100.00;96288.94;1026412;28;20042;-70
2020/12/19 00:27:16;;;;;;;155.90;33.97;;;;;;;-1.74;100.00;96283.84;1022391;28;20019;-72
2020/12/19 00:27:46;;;;;;;173.27;34.53;;;;;;;-1.73;100.00;96272.59;1025225;28;20026;-71
2020/12/19 00:28:17;;;;;;;103.40;31.07;;;;;;;-1.64;100.00;96288.78;1026233;28;20015;-71
2020/12/19 00:28:47;;;;;;;130.03;31.13;;;;;;;-1.78;100.00;96262.00;1026399;28;20023;-69
2020/12/19 00:29:18;;;;;;;168.23;32.97;;;;;;;-1.64;100.00;96286.19;1026504;28;20034;-72
2020/12/19 00:29:48;;;;;;;110.17;30.97;;;;;;;-1.59;100.00;96290.81;1026529;28;20011;-74
2020/12/19 00:30:19;;;;;;;120.53;26.40;;;;;;;-1.59;100.00;96283.91;1026625;28;20492;-69
2020/12/19 00:30:49;;;;;;;125.27;29.67;;;;;;;-1.57;100.00;96288.88;1030860;28;20006;-72
2020/12/19 00:31:23;;;;;;;139.70;31.40;;;;;;;-1.58;100.00;96287.25;1038118;28;20611;-70
2020/12/19 00:31:54;;;;;;;189.30;25.08;;;;;;;-1.56;100.00;96290.47;1038530;28;20529;-70
2020/12/19 00:32:24;;;;;;;207.33;27.23;;;;;;;-1.58;100.00;96289.84;1038745;28;20021;-71
2020/12/19 00:32:55;;;;;;;157.43;25.60;;;;;;;-1.66;100.00;96286.34;1055911;28;20069;-70
2020/12/19 00:33:25;;;;;;;155.67;27.40;;;;;;;-1.67;100.00;96289.91;1051145;28;20097;-72
2020/12/19 00:33:56;;;;;;;134.70;28.30;;;;;;;-1.64;100.00;96296.50;1038648;28;20048;-70
2020/12/19 00:34:26;;;;;;;147.40;26.87;;;;;;;-1.69;100.00;96285.91;1038540;28;20018;-72
2020/12/19 00:34:56;;;;;;;203.87;28.73;;;;;;;-1.71;100.00;96288.66;1038810;28;20037;-72
2020/12/19 00:35:27;;;;;;;131.90;27.20;;;;;;;-1.66;100.00;96286.34;1034242;28;20673;-71
2020/12/19 00:35:58;;;;;;;171.77;26.57;;;;;;;-1.70;100.00;96287.69;1034561;28;20025;-72
2020/12/19 00:36:28;;;;;;;177.00;28.67;;;;;;;-1.66;100.00;96288.13;1034455;28;20014;-70
2020/12/19 00:37:00;;;;;;;129.87;28.70;;;;;;;-1.67;100.00;96289.91;1030708;28;20577;-71
2020/12/19 00:37:30;;;;;;;155.90;29.02;;;;;;;-1.68;100.00;96278.03;1034639;28;20053;-70
2020/12/19 00:38:01;;;;;;;251.63;31.53;;;;;;;-1.68;100.00;96280.59;1038647;28;20130;-72
2020/12/19 00:38:31;;;;;;;225.30;29.13;;;;;;;-1.71;100.00;96278.38;1039353;28;20025;-70
2020/12/19 00:39:04;;;;;;;193.17;32.27;;;;;;;-1.68;100.00;96282.34;1034772;28;20030;-72
2020/12/19 00:39:34;;;;;;;179.35;28.55;;;;;;;-1.66;100.00;96285.56;1034238;28;20029;-71
2020/12/19 00:40:05;;;;;;;250.07;29.47;;;;;;;-1.70;100.00;96279.97;1030609;28;20526;-70
2020/12/19 00:40:35;;;;;;;201.00;28.67;;;;;;;-1.66;100.00;96280.41;1027270;28;20031;-71
2020/12/19 00:41:05;;;;;;;261.07;30.80;;;;;;;-1.69;100.00;96281.56;1030598;28;20026;-69
2020/12/19 00:41:36;;;;;;;201.87;32.27;;;;;;;-1.65;100.00;96282.00;1029517;28;20437;-71
2020/12/19 00:42:08;;;;;;;175.90;31.00;;;;;;;-1.66;100.00;96281.22;1030602;28;20053;-71
2020/12/19 00:42:40;;;;;;;151.95;27.85;;;;;;;-1.71;100.00;96270.66;1035012;28;20018;-70
2020/12/19 00:43:10;;;;;;;171.77;29.17;;;;;;;-1.74;100.00;96265.84;1034997;28;20026;-72
2020/12/19 00:43:40;;;;;;;163.63;32.37;;;;;;;-1.64;100.00;96275.09;1032909;28;20014;-70
2020/12/19 00:44:11;;;;;;;205.10;26.83;;;;;;;-1.67;100.00;96279.63;1026885;28;20031;-69
2020/12/19 00:44:41;;;;;;;147.73;28.67;;;;;;;-1.63;100.00;96277.50;1027401;28;20120;-70
2020/12/19 00:45:12;;;;;;;173.43;28.17;;;;;;;-1.64;100.00;96282.81;1030820;28;20027;-71
2020/12/19 00:45:42;;;;;;;213.90;26.87;;;;;;;-1.64;100.00;96278.47;1030192;28;20027;-69
2020/12/19 00:46:13;;;;;;;185.00;25.67;;;;;;;-1.78;100.00;96259.44;1030722;28;20026;-73
2020/12/19 00:46:48;;;;;;;171.23;27.38;;;;;;;-1.66;100.00;96278.63;1030326;28;20010;-70
2020/12/19 00:47:18;;;;;;;334.92;33.42;;;;;;;-1.71;100.00;96278.38;1027010;28;20065;-69
2020/12/19 00:47:48;;;;;;;305.93;35.97;;;;;;;-1.74;100.00;96278.72;1030279;28;20022;-71
2020/12/19 00:48:20;;;;;;;236.90;29.47;;;;;;;-1.71;100.00;96278.38;1031537;28;20067;-69
2020/12/19 00:48:50;;;;;;;232.50;29.92;;;;;;;-1.72;100.00;96275.94;1034730;28;20108;-70
2020/12/19 00:49:20;;;;;;;211.27;31.87;;;;;;;-1.72;100.00;96279.31;1038536;28;20025;-71
2020/12/19 00:49:51;;;;;;;325.40;32.43;;;;;;;-1.77;100.00;96279.06;1030143;28;20030;-72
2020/12/19 00:50:21;;;;;;;366.20;33.03;;;;;;;-1.81;100.00;96267.50;1026720;28;20420;-70
2020/12/19 00:50:52;;;;;;;251.60;31.53;;;;;;;-1.86;100.00;96264.63;1022671;29;20076;-70
2020/12/19 00:51:23;;;;;;;180.83;29.87;;;;;;;-1.77;100.00;96273.13;1025691;28;20023;-70
2020/12/19 00:51:53;;;;;;;251.83;34.00;;;;;;;-1.75;100.00;96277.09;1026050;28;20077;-71
2020/12/19 00:52:24;;;;;;;246.80;31.30;;;;;;;-1.83;100.00;96266.88;1022543;28;20027;-71
2020/12/19 00:52:54;;;;;;;263.73;34.00;;;;;;;-1.74;100.00;96276.13;1026593;28;20031;-70
2020/12/19 00:53:24;;;;;;;196.37;35.87;;;;;;;-1.68;100.00;96278.03;1026082;28;20023;-69
2020/12/19 00:53:55;;;;;;;226.93;29.83;;;;;;;-1.79;100.00;96262.97;1026285;28;20027;-72
2020/12/19 00:54:25;;;;;;;229.23;31.60;;;;;;;-1.78;100.00;96272.28;1030344;28;20420;-69
2020/12/19 00:54:56;;;;;;;218.93;28.97;;;;;;;-1.76;100.00;96272.94;1030462;28;20042;-70
2020/12/19 00:55:26;;;;;;;212.83;34.93;;;;;;;-1.75;100.00;96281.44;1038423;28;20102;-71
2020/12/19 00:55:57;;;;;;;220.77;35.53;;;;;;;-1.77;100.00;96275.69;1030284;28;20033;-69
2020/12/19 00:56:27;;;;;;;200.93;27.57;;;;;;;-1.78;100.00;96279.22;1030407;28;20583;-70
2020/12/19 00:56:58;;;;;;;186.40;28.03;;;;;;;-1.74;100.00;96283.84;1026440;28;20060;-69
2020/12/19 00:57:31;;;;;;;189.87;31.37;;;;;;;-1.81;100.00;96269.25;1022607;28;20019;-71
2020/12/19 00:58:02;;;;;;;208.95;28.52;;;;;;;-1.75;100.00;96277.09;1030513;28;20045;-71
2020/12/19 00:58:32;;;;;;;244.90;29.07;;;;;;;-1.77;100.00;96273.91;1034310;28;20025;-72
2020/12/19 00:59:03;;;;;;;250.27;28.77;;;;;;;-1.90;100.00;96263.38;1034961;28;20467;-71
2020/12/19 00:59:33;;;;;;;214.57;28.90;;;;;;;-1.81;100.00;96275.22;1026561;28;20030;-73
2020/12/19 01:00:05;;;;;;;179.23;28.53;;;;;;;-1.82;100.00;96270.25;1030306;28;20083;-71
2020/12/19 01:00:35;;;;;;;213.05;26.42;;;;;;;-1.88;100.00;96261.44;1026428;28;20038;-71
2020/12/19 01:01:06;;;;;;;174.63;26.63;;;;;;;-1.80;100.00;96276.03;1026863;28;20035;-72
2020/12/19 01:01:36;;;;;;;217.03;29.20;;;;;;;-1.91;100.00;96262.59;1033945;28;20028;-72
2020/12/19 01:02:07;;;;;;;211.77;28.53;;;;;;;-1.88;100.00;96261.44;1034253;28;20573;-70
2020/12/19 01:02:37;;;;;;;161.13;29.00;;;;;;;-1.79;100.00;96270.69;1033721;28;20053;-71
2020/12/19 01:03:08;;;;;;;161.87;26.00;;;;;;;-1.74;100.00;96277.91;1034590;28;20022;-71
2020/12/19 01:03:38;;;;;;;149.00;29.50;;;;;;;-1.74;100.00;96273.56;1030195;28;20023;-70
2020/12/19 01:04:09;;;;;;;136.57;29.23;;;;;;;-1.73;100.00;96274.38;1030565;28;20022;-70
2020/12/19 01:04:39;;;;;;;107.97;27.13;;;;;;;-1.73;100.00;96275.16;1026168;28;20049;-72
2020/12/19 01:05:10;;;;;;;237.90;31.23;;;;;;;-1.81;100.00;96257.22;1026259;28;20077;-71
2020/12/19 01:05:40;;;;;;;157.93;29.40;;;;;;;-1.74;100.00;96271.00;1026277;28;20041;-70
2020/12/19 01:06:14;;;;;;;142.23;25.67;;;;;;;-1.71;100.00;96278.38;1025920;28;20039;-70
2020/12/19 01:06:45;;;;;;;116.97;28.30;;;;;;;-1.67;100.00;96271.91;1026553;28;20748;-70
2020/12/19 01:07:15;;;;;;;112.03;25.40;;;;;;;-1.65;100.00;96271.72;1023725;28;20031;-69
2020/12/19 01:07:46;;;;;;;100.33;23.27;;;;;;;-1.77;100.00;96253.34;1030767;28;20026;-71
2020/12/19 01:08:16;;;;;;;173.60;25.73;;;;;;;-1.69;100.00;96268.69;1026402;28;20029;-70
2020/12/19 01:08:48;;;;;;;219.83;25.93;;;;;;;-1.81;100.00;96259.81;1030230;28;20019;-68
2020/12/19 01:09:18;;;;;;;184.63;26.35;;;;;;;-1.73;100.00;96275.16;1030416;28;20030;-71
2020/12/19 01:09:49;;;;;;;148.60;24.13;;;;;;;-1.82;100.00;96265.09;1026709;28;20517;-70
2020/12/19 01:10:19;;;;;;;168.20;24.80;;;;;;;-1.73;100.00;96277.72;1034316;28;20135;-70
2020/12/19 01:10:49;;;;;;;205.20;24.97;;;;;;;-1.84;100.00;96262.72;1034333;28;20025;-70
2020/12/19 01:11:21;;;;;;;162.17;24.43;;;;;;;-1.83;100.00;96266.88;1030266;28;20673;-72
2020/12/19 01:11:51;;;;;;;242.25;30.63;;;;;;;-1.75;100.00;96276.28;1026150;28;20052;-70
2020/12/19 01:12:22;;;;;;;247.43;28.33;;;;;;;-1.77;100.00;96271.34;1030345;28;20095;-71
2020/12/19 01:12:52;;;;;;;175.17;28.37;;;;;;;-2.00;100.00;96237.91;1030512;28;20022;-70
2020/12/19 01:13:23;;;;;;;155.30;28.70;;;;;;;-1.77;100.00;96276.47;1030583;28;20030;-71
2020/12/19 01:13:53;;;;;;;193.47;28.03;;;;;;;-1.79;100.00;96272.47;1024773;28;20058;-72
2020/12/19 01:14:24;;;;;;;320.40;30.80;;;;;;;-1.84;100.00;96273.00;1034431;28;20026;-70
2020/12/19 01:14:54;;;;;;;224.70;30.07;;;;;;;-1.92;100.00;96265.31;1034297;28;20050;-70
2020/12/19 01:15:25;;;;;;;167.87;30.60;;;;;;;-1.81;100.00;96276.97;1028319;28;20019;-71
2020/12/19 01:15:55;;;;;;;240.00;32.67;;;;;;;-1.85;100.00;96276.53;1030529;28;20050;-70
2020/12/19 01:16:27;;;;;;;282.70;31.40;;;;;;;-1.93;100.00;96268.88;1030557;28;20061;-71
2020/12/19 01:16:57;;;;;;;189.63;28.30;;;;;;;-1.86;100.00;96281.84;1031045;28;20034;-70
2020/12/19 01:17:28;;;;;;;186.93;32.27;;;;;;;-1.81;100.00;96277.81;1034335;28;20112;-71
2020/12/19 01:17:58;;;;;;;241.00;28.87;;;;;;;-1.81;100.00;96282.13;1034328;28;20025;-70
2020/12/19 01:18:29;;;;;;;143.07;29.40;;;;;;;-1.79;100.00;96278.41;1030599;28;20048;-71
2020/12/19 01:19:04;;;;;;;222.90;29.57;;;;;;;-1.87;100.00;96270.75;1026067;28;20500;-71
2020/12/19 01:19:34;;;;;;;165.27;28.25;;;;;;;-1.85;100.00;96266.22;1026269;28;20518;-73
2020/12/19 01:20:04;;;;;;;154.97;27.40;;;;;;;-1.74;100.00;96277.91;1026339;28;20034;-70
2020/12/19 01:20:35;;;;;;;254.60;28.13;;;;;;;-1.79;100.00;96275.84;1026240;28;20701;-71
2020/12/19 01:21:15;;;;;;;170.20;28.17;;;;;;;-1.78;100.00;96282.56;1026094;28;20061;-70
2020/12/19 01:21:46;;;;;;;225.80;27.05;;;;;;;-1.81;100.00;96277.81;1026771;28;20029;-71
2020/12/19 01:22:16;;;;;;;242.90;31.07;;;;;;;-1.84;100.00;96270.44;1022226;28;20112;-72
2020/12/19 01:22:46;;;;;;;292.93;31.13;;;;;;;-1.87;100.00;96273.34;1026362;28;20053;-69
2020/12/19 01:23:17;;;;;;;268.37;32.80;;;;;;;-1.80;100.00;96279.41;1030079;28;20171;-71
2020/12/19 01:23:48;;;;;;;392.90;34.20;;;;;;;-1.83;100.00;96276.38;1030170;28;20026;-69
2020/12/19 01:24:18;;;;;;;324.60;34.67;;;;;;;-1.84;100.00;96277.34;1026410;28;20542;-70
2020/12/19 01:24:49;;;;;;;251.00;29.83;;;;;;;-1.80;100.00;96279.41;1022587;28;20262;-73
2020/12/19 01:25:19;;;;;;;229.13;31.20;;;;;;;-1.78;100.00;96274.84;1030231;28;20015;-75
2020/12/19 01:25:50;;;;;;;224.63;31.07;;;;;;;-1.79;100.00;96278.41;1030139;28;20065;-70
2020/12/19 01:26:20;;;;;;;232.27;27.90;;;;;;;-1.84;100.00;96272.19;1030543;28;20369;-70
2020/12/19 01:26:51;;;;;;;200.60;30.57;;;;;;;-1.85;100.00;96263.66;1026392;28;20105;-71
2020/12/19 01:27:21;;;;;;;141.80;28.63;;;;;;;-1.77;100.00;96273.13;1022046;28;20027;-70
2020/12/19 01:27:52;;;;;;;187.67;29.60;;;;;;;-1.74;100.00;96271.00;1026366;28;20061;-70
2020/12/19 01:28:22;;;;;;;128.67;26.37;;;;;;;-1.73;100.00;96285.44;1026543;28;20057;-70
2020/12/19 01:28:54;;;;;;;179.07;27.17;;;;;;;-1.77;100.00;96267.97;1026204;28;20030;-69
2020/12/19 01:29:24;;;;;;;223.77;30.65;;;;;;;-1.74;100.00;96273.56;1022107;28;20137;-71
2020/12/19 01:29:55;;;;;;;171.97;31.00;;;;;;;-1.72;100.00;96270.81;1021564;28;20498;-70
2020/12/19 01:30:25;;;;;;;162.00;28.27;;;;;;;-1.70;100.00;96268.88;1022620;28;20099;-72
2020/12/19 01:30:55;;;;;;;191.33;28.97;;;;;;;-1.73;100.00;96275.16;1030591;28;20038;-69
2020/12/19 01:31:26;;;;;;;105.67;26.33;;;;;;;-1.71;100.00;96273.22;1033490;28;20745;-71
2020/12/19 01:31:56;;;;;;;187.50;27.40;;;;;;;-1.73;100.00;96272.59;1030001;28;20079;-72
2020/12/19 01:32:27;;;;;;;174.80;32.07;;;;;;;-1.82;100.00;96255.59;1034376;28;20391;-72
2020/12/19 01:32:57;;;;;;;182.50;28.03;;;;;;;-1.73;100.00;96275.16;1026079;28;20089;-70
2020/12/19 01:33:28;;;;;;;160.50;26.53;;;;;;;-1.72;100.00;96276.75;1029828;28;20037;-70
2020/12/19 01:33:58;;;;;;;258.83;30.17;;;;;;;-1.73;100.00;96270.00;1030240;28;20034;-70
2020/12/19 01:34:29;;;;;;;203.47;28.63;;;;;;;-1.75;100.00;96277.09;1026142;28;20069;-70
2020/12/19 01:35:02;;;;;;;227.10;31.03;;;;;;;-1.72;100.00;96269.03;1026371;28;20088;-70
2020/12/19 01:35:32;;;;;;;246.07;30.42;;;;;;;-1.72;100.00;96271.59;1026472;28;20488;-70
2020/12/19 01:36:03;;;;;;;151.53;30.63;;;;;;;-1.69;100.00;96281.56;1026572;28;20042;-73
2020/12/19 01:36:33;;;;;;;121.60;24.73;;;;;;;-1.67;100.00;96271.91;1026886;28;20050;-72
2020/12/19 01:37:04;;;;;;;150.20;30.27;;;;;;;-1.62;100.00;96270.56;1030418;28;20022;-71
2020/12/19 01:37:34;;;;;;;130.50;29.43;;;;;;;-1.63;100.00;96279.28;1026128;28;20081;-72
2020/12/19 01:38:05;;;;;;;212.00;26.43;;;;;;;-1.69;100.00;96271.25;1025410;28;20031;-70
2020/12/19 01:38:36;;;;;;;229.33;28.00;;;;;;;-1.67;100.00;96271.91;1026257;28;20027;-71
2020/12/19 01:39:06;;;;;;;204.50;31.37;;;;;;;-1.68;100.00;96267.75;1034393;28;20034;-71
2020/12/19 01:39:37;;;;;;;130.20;26.53;;;;;;;-1.72;100.00;96269.03;1032596;28;21077;-71
2020/12/19 01:40:07;;;;;;;118.60;24.23;;;;;;;-1.69;100.00;96276.41;1022161;29;20035;-70
2020/12/19 01:40:37;;;;;;;273.97;26.63;;;;;;;-1.75;100.00;96266.81;1022305;28;20531;-71
2020/12/19 01:41:08;;;;;;;355.17;31.63;;;;;;;-1.85;100.00;96263.66;1026521;28;20034;-71
2020/12/19 01:41:39;;;;;;;284.47;29.53;;;;;;;-1.78;100.00;96277.44;1042169;28;20124;-70
2020/12/19 01:42:09;;;;;;;239.03;28.83;;;;;;;-1.79;100.00;96270.69;1043049;28;20563;-71
2020/12/19 01:42:39;;;;;;;264.80;35.37;;;;;;;-1.75;100.00;96278.88;1043056;28;20029;-70
2020/12/19 01:43:10;;;;;;;220.07;33.67;;;;;;;-1.78;100.00;96274.84;1030475;28;20030;-70
2020/12/19 01:43:56;;;;;;;204.80;29.87;;;;;;;-1.83;100.00;96272.03;1034349;28;20038;-69
2020/12/19 01:44:26;;;;;;;240.93;35.88;;;;;;;-1.82;100.00;96276.19;1032491;28;20151;-70
2020/12/19 01:44:57;;;;;;;190.27;28.60;;;;;;;-1.79;100.00;96267.31;1040463;28;20132;-69
2020/12/19 01:45:27;;;;;;;231.97;32.40;;;;;;;-1.78;100.00;96272.28;1034340;28;20100;-71
2020/12/19 01:45:58;;;;;;;274.23;35.30;;;;;;;-1.75;100.00;96273.72;1033531;28;20064;-69
2020/12/19 01:46:54;;;;;;;252.18;32.15;;;;;;;-1.74;100.00;96270.19;1030316;28;20041;-72
2020/12/19 01:47:25;;;;;;;159.88;27.85;;;;;;;-1.80;100.00;96263.16;1037489;28;20026;-72
2020/12/19 01:47:55;;;;;;;240.97;34.67;;;;;;;-1.78;100.00;96262.00;1034375;28;20784;-71
2020/12/19 01:48:26;;;;;;;206.20;29.67;;;;;;;-1.76;100.00;96275.50;1037566;28;20045;-72
2020/12/19 01:48:59;;;;;;;215.00;32.00;;;;;;;-1.84;100.00;96249.84;1030378;28;20122;-72
2020/12/19 01:49:30;;;;;;;145.00;31.20;;;;;;;-1.69;100.00;96265.31;1026323;28;20076;-69
2020/12/19 01:50:04;;;;;;;123.00;29.20;;;;;;;-1.64;100.00;96267.38;1026040;28;20114;-71
2020/12/19 01:50:35;;;;;;;165.18;29.38;;;;;;;-1.65;100.00;96266.56;1026182;28;20027;-72
2020/12/19 01:51:05;;;;;;;223.30;26.20;;;;;;;-1.70;100.00;96258.59;1030169;28;20030;-70
2020/12/19 01:51:36;;;;;;;121.17;24.87;;;;;;;-1.65;100.00;96269.16;1026628;28;20030;-70
2020/12/19 01:52:07;;;;;;;157.47;27.53;;;;;;;-1.71;100.00;96257.78;1026150;28;20027;-70
2020/12/19 01:52:37;;;;;;;151.60;27.27;;;;;;;-1.69;100.00;96260.97;1046993;28;20143;-73
2020/12/19 01:53:08;;;;;;;192.70;28.23;;;;;;;-1.70;100.00;96259.38;1026335;28;20039;-70
2020/12/19 01:53:38;;;;;;;154.50;31.53;;;;;;;-1.63;100.00;96264.63;1026041;28;20116;-70
2020/12/19 01:54:09;;;;;;;108.57;25.67;;;;;;;-1.70;100.00;96254.25;1024069;28;20026;-72
2020/12/19 01:54:39;;;;;;;140.47;24.83;;;;;;;-1.61;100.00;96261.88;1025644;28;20027;-70
2020/12/19 01:55:10;;;;;;;106.57;23.93;;;;;;;-1.61;100.00;96264.44;1024140;28;20451;-70
2020/12/19 01:55:40;;;;;;;137.27;26.47;;;;;;;-1.69;100.00;96250.69;1029938;28;20025;-69
2020/12/19 01:56:11;;;;;;;129.37;25.83;;;;;;;-1.64;100.00;96259.66;1047167;28;20074;-71
2020/12/19 01:56:44;;;;;;;78.80;22.20;;;;;;;-1.61;100.00;96265.28;1047080;28;20103;-71
2020/12/19 01:57:15;;;;;;;136.35;23.85;;;;;;;-1.72;100.00;96245.88;1026821;28;20027;-70
2020/12/19 01:57:45;;;;;;;169.87;25.13;;;;;;;-1.74;100.00;96249.63;1022753;28;20027;-69
2020/12/19 01:58:16;;;;;;;128.70;25.87;;;;;;;-1.66;100.00;96265.78;1022369;29;20034;-70
2020/12/19 01:58:46;;;;;;;145.27;27.10;;;;;;;-1.68;100.00;96266.91;1022820;28;20032;-72
2020/12/19 01:59:17;;;;;;;66.00;23.60;;;;;;;-1.64;100.00;96263.03;1029069;28;20018;-69
2020/12/19 01:59:47;;;;;;;130.70;30.20;;;;;;;-1.73;100.00;96243.50;1022292;28;20051;-70
2020/12/19 02:00:17;;;;;;;270.20;28.87;;;;;;;-1.66;100.00;96259.84;1022965;28;20063;-71
2020/12/19 02:00:48;;;;;;;172.83;25.53;;;;;;;-1.68;100.00;96264.34;1047171;28;20032;-71
2020/12/19 02:01:19;;;;;;;281.20;30.90;;;;;;;-1.69;100.00;96255.81;1037699;28;20116;-68
2020/12/19 02:01:56;;;;;;;235.57;29.13;;;;;;;-1.67;100.00;96253.91;1025795;28;20733;-70
2020/12/19 02:02:27;;;;;;;177.18;28.83;;;;;;;-1.64;100.00;96263.03;1037022;28;20029;-70
2020/12/19 02:02:57;;;;;;;136.93;24.37;;;;;;;-1.67;100.00;96259.03;1038125;28;20772;-70
2020/12/19 02:03:28;;;;;;;195.40;27.47;;;;;;;-1.71;100.00;96254.41;1033163;28;20076;-71
2020/12/19 02:03:58;;;;;;;174.17;28.57;;;;;;;-1.76;100.00;96249.78;1034640;28;20522;-69
2020/12/19 02:04:29;;;;;;;191.80;27.50;;;;;;;-1.70;100.00;96261.16;1030256;28;20034;-70
2020/12/19 02:04:59;;;;;;;214.70;26.93;;;;;;;-1.73;100.00;96264.88;1030258;28;20062;-70
2020/12/19 02:05:31;;;;;;;171.20;27.23;;;;;;;-1.82;100.00;96247.88;1022375;28;20035;-71
2020/12/19 02:06:02;;;;;;;203.00;27.88;;;;;;;-1.82;100.00;96250.47;1022631;28;20394;-72
2020/12/19 02:06:32;;;;;;;257.17;32.20;;;;;;;-1.75;100.00;96261.66;1026321;28;20039;-71
2020/12/19 02:07:04;;;;;;;227.17;30.97;;;;;;;-1.72;100.00;96266.47;1051279;28;20055;-70
2020/12/19 02:07:36;;;;;;;262.80;32.17;;;;;;;-1.81;100.00;96252.09;1026271;28;20393;-69
2020/12/19 02:08:06;;;;;;;210.43;33.03;;;;;;;-1.81;100.00;96244.38;1034499;28;20845;-70
2020/12/19 02:08:36;;;;;;;201.73;32.83;;;;;;;-1.83;100.00;96243.72;1030250;28;20022;-69
2020/12/19 02:09:07;;;;;;;270.50;27.27;;;;;;;-1.86;100.00;96246.63;1030192;28;20467;-70
2020/12/19 02:09:39;;;;;;;180.37;32.43;;;;;;;-1.77;100.00;96253.34;1026286;28;20062;-70
2020/12/19 02:10:09;;;;;;;158.05;26.75;;;;;;;-1.72;100.00;96257.94;1030319;28;20606;-71
2020/12/19 02:10:39;;;;;;;249.53;27.03;;;;;;;-1.75;100.00;96256.50;1026128;28;20035;-68
2020/12/19 02:11:10;;;;;;;262.07;27.47;;;;;;;-1.74;100.00;96260.72;1022454;28;20505;-71
2020/12/19 02:11:42;;;;;;;251.60;30.40;;;;;;;-1.85;100.00;96242.28;1021835;28;20355;-70
2020/12/19 02:12:12;;;;;;;212.63;30.15;;;;;;;-1.73;100.00;96254.56;1022655;28;20482;-70
2020/12/19 02:12:43;;;;;;;261.17;32.23;;;;;;;-1.77;100.00;96255.91;1026627;28;20088;-71
2020/12/19 02:13:13;;;;;;;279.30;31.83;;;;;;;-1.81;100.00;96254.66;1030236;28;20034;-70
2020/12/19 02:13:44;;;;;;;216.10;28.13;;;;;;;-1.79;100.00;96254.47;1030213;28;20468;-70
2020/12/19 02:14:15;;;;;;;363.57;29.53;;;;;;;-1.88;100.00;96256.28;1026168;28;20107;-70
2020/12/19 02:14:45;;;;;;;215.40;30.40;;;;;;;-1.84;100.00;96257.56;1022755;28;20115;-70
2020/12/19 02:15:16;;;;;;;143.93;26.63;;;;;;;-1.82;100.00;96253.03;1030383;28;20569;-71
2020/12/19 02:15:46;;;;;;;213.50;30.00;;;;;;;-1.79;100.00;96252.69;1026161;28;20480;-72
2020/12/19 02:16:19;;;;;;;185.53;26.00;;;;;;;-1.86;100.00;96243.28;1030249;28;20037;-69
2020/12/19 02:16:54;;;;;;;202.77;30.95;;;;;;;-1.78;100.00;96256.84;1030343;28;20032;-69
2020/12/19 02:17:25;;;;;;;194.63;27.95;;;;;;;-1.78;100.00;96262.00;1027118;28;20136;-71
2020/12/19 02:17:55;;;;;;;228.20;33.37;;;;;;;-1.73;100.00;96257.16;1026214;28;20068;-70
2020/12/19 02:18:26;;;;;;;150.73;29.40;;;;;;;-1.72;100.00;96255.38;1027536;28;20050;-70
2020/12/19 02:18:56;;;;;;;159.03;29.83;;;;;;;-1.71;100.00;96256.97;1028068;28;20639;-72
2020/12/19 02:19:27;;;;;;;230.80;30.97;;;;;;;-1.73;100.00;96254.56;1028213;28;20035;-71